createdAt,value
2017-02-12T00:00:50.452Z,1.57
2017-02-12T00:02:01.857Z,1.61
2017-02-12T00:03:13.260Z,1.56
2017-02-12T00:04:24.863Z,1.53
2017-02-12T00:05:36.263Z,1.53
2017-02-12T00:06:47.660Z,1.47
2017-02-12T00:07:59.052Z,1.53
2017-02-12T00:09:10.451Z,1.58
2017-02-12T00:10:22.061Z,1.51
2017-02-12T00:11:33.514Z,1.56
2017-02-12T00:12:44.916Z,1.65
2017-02-12T00:13:56.318Z,1.65
2017-02-12T00:15:07.726Z,1.64
2017-02-12T00:16:19.130Z,1.61
2017-02-12T00:17:30.944Z,1.66
2017-02-12T00:18:42.354Z,1.56
2017-02-12T00:19:53.964Z,1.68
2017-02-12T00:21:05.363Z,1.64
2017-02-12T00:22:16.806Z,1.64
2017-02-12T00:23:28.406Z,1.65
2017-02-12T00:24:39.799Z,1.61
2017-02-12T00:25:51.206Z,1.65
2017-02-12T00:27:02.610Z,1.65
2017-02-12T00:28:14.501Z,1.57
2017-02-12T00:29:26.357Z,1.64
2017-02-12T00:30:37.752Z,1.65
2017-02-12T00:31:49.151Z,1.6
2017-02-12T00:33:00.558Z,1.6
2017-02-12T00:34:12.007Z,1.64
2017-02-12T00:35:23.400Z,1.61
2017-02-12T00:36:34.795Z,1.56
2017-02-12T00:37:46.401Z,1.6
2017-02-12T00:38:57.812Z,1.68
2017-02-12T00:40:09.478Z,1.6
2017-02-12T00:41:20.878Z,1.57
2017-02-12T00:42:32.274Z,1.61
2017-02-12T00:43:43.676Z,1.71
2017-02-12T00:44:55.080Z,1.56
2017-02-12T00:46:06.528Z,1.61
2017-02-12T00:47:18.135Z,1.56
2017-02-12T00:48:29.540Z,1.64
2017-02-12T00:49:40.938Z,1.51
2017-02-12T00:50:52.339Z,1.56
2017-02-12T00:52:03.795Z,1.57
2017-02-12T00:53:15.203Z,1.57
2017-02-12T00:54:26.606Z,1.56
2017-02-12T00:55:38.220Z,1.56
2017-02-12T00:56:49.627Z,1.69
2017-02-12T00:58:01.073Z,1.66
2017-02-12T00:59:12.484Z,1.64
2017-02-12T01:00:24.092Z,1.64
2017-02-12T01:01:35.485Z,1.58
2017-02-12T01:02:47.095Z,1.65
2017-02-12T01:03:58.751Z,1.64
2017-02-12T01:05:10.355Z,1.66
2017-02-12T01:06:21.757Z,1.71
2017-02-12T01:07:33.359Z,1.61
2017-02-12T01:08:44.801Z,1.64
2017-02-12T01:09:56.257Z,1.71
2017-02-12T01:11:07.662Z,1.6
2017-02-12T01:12:19.066Z,1.64
2017-02-12T01:13:30.464Z,1.61
2017-02-12T01:14:41.865Z,1.57
2017-02-12T01:15:53.270Z,1.65
2017-02-12T01:17:04.674Z,1.56
2017-02-12T01:18:16.089Z,1.64
2017-02-12T01:19:27.697Z,1.64
2017-02-12T01:20:39.154Z,1.61
2017-02-12T01:21:50.561Z,1.68
2017-02-12T01:23:01.965Z,1.61
2017-02-12T01:24:13.569Z,1.65
2017-02-12T01:25:24.965Z,1.65
2017-02-12T01:26:36.376Z,1.6
2017-02-12T01:27:47.981Z,1.6
2017-02-12T01:28:59.786Z,1.61
2017-02-12T01:30:11.189Z,1.65
2017-02-12T01:31:22.641Z,1.57
2017-02-12T01:32:34.045Z,1.61
2017-02-12T01:33:45.441Z,1.64
2017-02-12T01:34:57.041Z,1.68
2017-02-12T01:36:08.444Z,1.66
2017-02-12T01:37:19.847Z,1.58
2017-02-12T01:38:31.260Z,1.65
2017-02-12T01:39:42.888Z,1.65
2017-02-12T01:40:54.289Z,1.6
2017-02-12T01:42:05.698Z,1.6
2017-02-12T01:43:17.149Z,1.57
2017-02-12T01:44:28.547Z,1.56
2017-02-12T01:45:39.951Z,1.57
2017-02-12T01:46:51.357Z,1.64
2017-02-12T01:48:02.853Z,1.54
2017-02-12T01:49:14.245Z,1.64
2017-02-12T01:50:25.844Z,1.58
2017-02-12T01:51:37.250Z,1.58
2017-02-12T01:52:48.661Z,1.6
2017-02-12T01:54:00.064Z,1.6
2017-02-12T01:55:11.474Z,1.56
2017-02-12T01:56:22.880Z,1.6
2017-02-12T01:57:34.485Z,1.53
2017-02-12T01:58:46.138Z,1.58
2017-02-12T01:59:57.530Z,1.6
2017-02-12T02:01:09.134Z,1.65
2017-02-12T02:02:20.533Z,1.56
2017-02-12T02:03:31.932Z,1.56
2017-02-12T02:04:43.336Z,1.66
2017-02-12T02:05:54.737Z,1.61
2017-02-12T02:07:06.146Z,1.64
2017-02-12T02:08:17.547Z,1.6
2017-02-12T02:09:28.999Z,1.53
2017-02-12T02:10:40.411Z,1.56
2017-02-12T02:11:51.813Z,1.61
2017-02-12T02:13:03.216Z,1.56
2017-02-12T02:14:14.621Z,1.58
2017-02-12T02:15:26.076Z,1.66
2017-02-12T02:16:37.482Z,1.66
2017-02-12T02:17:48.894Z,1.61
2017-02-12T02:19:00.493Z,1.61
2017-02-12T02:20:11.939Z,1.56
2017-02-12T02:21:23.342Z,1.48
2017-02-12T02:22:34.741Z,1.51
2017-02-12T02:23:46.191Z,1.53
2017-02-12T02:24:57.791Z,1.48
2017-02-12T02:26:09.186Z,1.46
2017-02-12T02:27:20.589Z,1.5
2017-02-12T02:28:31.995Z,1.48
2017-02-12T02:29:43.399Z,1.4
2017-02-12T02:30:54.834Z,1.47
2017-02-12T02:32:06.296Z,1.44
2017-02-12T02:33:17.695Z,1.4
2017-02-12T02:34:29.094Z,1.46
2017-02-12T02:35:40.687Z,1.46
2017-02-12T02:36:52.099Z,1.4
2017-02-12T02:38:03.507Z,1.4
2017-02-12T02:39:14.913Z,1.33
2017-02-12T02:40:26.729Z,1.38
2017-02-12T02:41:38.187Z,1.4
2017-02-12T02:42:49.780Z,1.38
2017-02-12T02:44:01.190Z,1.32
2017-02-12T02:45:12.601Z,1.4
2017-02-12T02:46:24.210Z,1.42
2017-02-12T02:47:35.815Z,1.42
2017-02-12T02:48:47.223Z,1.3
2017-02-12T02:49:58.645Z,1.36
2017-02-12T02:51:10.241Z,1.42
2017-02-12T02:52:21.694Z,1.33
2017-02-12T02:53:33.096Z,1.32
2017-02-12T02:54:44.497Z,1.39
2017-02-12T02:55:56.094Z,1.3
2017-02-12T02:57:07.706Z,1.33
2017-02-12T02:58:19.116Z,1.32
2017-02-12T02:59:30.526Z,1.36
2017-02-12T03:00:41.928Z,1.3
2017-02-12T03:01:53.534Z,1.32
2017-02-12T03:03:05.184Z,1.29
2017-02-12T03:04:16.590Z,1.38
2017-02-12T03:05:27.993Z,1.32
2017-02-12T03:06:39.597Z,1.3
2017-02-12T03:07:51.007Z,1.33
2017-02-12T03:09:02.417Z,1.29
2017-02-12T03:10:14.021Z,1.32
2017-02-12T03:11:25.419Z,1.33
2017-02-12T03:12:36.820Z,1.29
2017-02-12T03:13:48.218Z,1.32
2017-02-12T03:14:59.674Z,1.36
2017-02-12T03:16:11.072Z,1.35
2017-02-12T03:17:22.678Z,1.35
2017-02-12T03:18:34.079Z,1.26
2017-02-12T03:19:45.543Z,1.32
2017-02-12T03:20:56.944Z,1.32
2017-02-12T03:22:08.350Z,1.29
2017-02-12T03:23:19.951Z,1.21
2017-02-12T03:24:31.353Z,1.24
2017-02-12T03:25:42.753Z,1.24
2017-02-12T03:26:54.157Z,1.22
2017-02-12T03:28:05.561Z,1.21
2017-02-12T03:29:16.964Z,1.18
2017-02-12T03:30:28.408Z,1.24
2017-02-12T03:31:39.818Z,1.24
2017-02-12T03:32:51.220Z,1.22
2017-02-12T03:34:02.627Z,1.2
2017-02-12T03:35:14.031Z,1.21
2017-02-12T03:36:25.425Z,1.22
2017-02-12T03:37:37.024Z,1.17
2017-02-12T03:38:48.422Z,1.15
2017-02-12T03:39:59.826Z,1.2
2017-02-12T03:41:11.289Z,1.18
2017-02-12T03:42:22.896Z,1.21
2017-02-12T03:43:34.695Z,1.21
2017-02-12T03:44:46.089Z,1.21
2017-02-12T03:45:57.493Z,1.28
2017-02-12T03:47:08.896Z,1.22
2017-02-12T03:48:20.294Z,1.21
2017-02-12T03:49:31.687Z,1.22
2017-02-12T03:50:43.293Z,1.22
2017-02-12T03:51:54.934Z,1.17
2017-02-12T03:53:06.375Z,1.2
2017-02-12T03:54:17.782Z,1.24
2017-02-12T03:55:29.187Z,1.21
2017-02-12T03:56:40.615Z,1.18
2017-02-12T03:57:52.236Z,1.2
2017-02-12T03:59:03.642Z,1.2
2017-02-12T04:00:15.047Z,1.29
2017-02-12T04:01:26.453Z,1.24
2017-02-12T04:02:37.859Z,1.15
2017-02-12T04:03:49.514Z,1.18
2017-02-12T04:05:00.917Z,1.24
2017-02-12T04:06:12.315Z,1.12
2017-02-12T04:07:23.711Z,1.21
2017-02-12T04:08:35.111Z,1.11
2017-02-12T04:09:46.709Z,1.15
2017-02-12T04:10:58.112Z,1.17
2017-02-12T04:12:09.517Z,1.24
2017-02-12T04:13:20.972Z,1.15
2017-02-12T04:14:32.375Z,1.03
2017-02-12T04:15:43.780Z,1.02
2017-02-12T04:16:55.381Z,1.08
2017-02-12T04:18:06.778Z,1.15
2017-02-12T04:19:18.179Z,1.08
2017-02-12T04:20:29.583Z,1.07
2017-02-12T04:21:40.984Z,1.04
2017-02-12T04:22:52.381Z,0.99
2017-02-12T04:24:03.841Z,1
2017-02-12T04:25:15.436Z,0.96
2017-02-12T04:26:26.831Z,0.96
2017-02-12T04:27:38.239Z,0.92
2017-02-12T04:28:49.845Z,0.99
2017-02-12T04:30:01.253Z,0.92
2017-02-12T04:31:12.655Z,0.9
2017-02-12T04:32:24.054Z,0.89
2017-02-12T04:33:35.656Z,0.92
2017-02-12T04:34:47.112Z,0.89
2017-02-12T04:35:58.505Z,0.81
2017-02-12T04:37:09.901Z,0.89
2017-02-12T04:38:21.503Z,0.82
2017-02-12T04:39:32.904Z,0.82
2017-02-12T04:40:44.302Z,0.81
2017-02-12T04:41:55.704Z,0.81
2017-02-12T04:43:07.111Z,0.76
2017-02-12T04:44:18.514Z,0.86
2017-02-12T04:45:29.920Z,0.76
2017-02-12T04:46:41.367Z,0.75
2017-02-12T04:47:52.792Z,0.86
2017-02-12T04:49:04.394Z,0.9
2017-02-12T04:50:15.787Z,0.84
2017-02-12T04:51:27.241Z,0.96
2017-02-12T04:52:38.640Z,0.94
2017-02-12T04:53:50.049Z,0.94
2017-02-12T04:55:01.451Z,0.94
2017-02-12T04:56:12.847Z,0.97
2017-02-12T04:57:24.454Z,1.02
2017-02-12T04:58:35.855Z,0.96
2017-02-12T04:59:47.257Z,0.99
2017-02-12T05:00:58.651Z,1.02
2017-02-12T05:02:10.110Z,1
2017-02-12T05:03:21.511Z,1.11
2017-02-12T05:04:32.904Z,1.08
2017-02-12T05:05:44.315Z,1.21
2017-02-12T05:06:55.714Z,1.14
2017-02-12T05:08:07.112Z,1.22
2017-02-12T05:09:18.715Z,1.21
2017-02-12T05:10:30.154Z,1.18
2017-02-12T05:11:41.549Z,1.24
2017-02-12T05:12:53.034Z,1.14
2017-02-12T05:14:04.442Z,1.18
2017-02-12T05:15:15.840Z,1.2
2017-02-12T05:16:27.245Z,1.21
2017-02-12T05:17:38.856Z,1.24
2017-02-12T05:18:50.256Z,1.18
2017-02-12T05:20:01.654Z,1.22
2017-02-12T05:21:13.051Z,1.24
2017-02-12T05:22:24.452Z,1.28
2017-02-12T05:23:36.101Z,1.26
2017-02-12T05:24:47.506Z,1.32
2017-02-12T05:25:58.897Z,1.24
2017-02-12T05:27:10.290Z,1.26
2017-02-12T05:28:21.692Z,1.28
2017-02-12T05:29:33.087Z,1.21
2017-02-12T05:30:44.491Z,1.21
2017-02-12T05:31:56.499Z,1.29
2017-02-12T05:33:07.903Z,1.28
2017-02-12T05:34:19.501Z,1.21
2017-02-12T05:35:30.950Z,1.29
2017-02-12T05:36:42.363Z,1.3
2017-02-12T05:37:53.980Z,1.3
2017-02-12T05:39:05.373Z,1.33
2017-02-12T05:40:16.776Z,1.33
2017-02-12T05:41:28.579Z,1.29
2017-02-12T05:42:39.979Z,1.26
2017-02-12T05:43:51.377Z,1.22
2017-02-12T05:45:02.836Z,1.22
2017-02-12T05:46:14.435Z,1.18
2017-02-12T05:47:25.832Z,1.22
2017-02-12T05:48:37.239Z,1.26
2017-02-12T05:49:48.634Z,1.2
2017-02-12T05:51:00.039Z,1.22
2017-02-12T05:52:11.442Z,1.28
2017-02-12T05:53:23.047Z,1.24
2017-02-12T05:54:34.453Z,1.28
2017-02-12T05:55:46.104Z,1.29
2017-02-12T05:56:57.505Z,1.32
2017-02-12T05:58:08.903Z,1.36
2017-02-12T05:59:20.309Z,1.3
2017-02-12T06:00:31.701Z,1.3
2017-02-12T06:01:43.103Z,1.33
2017-02-12T06:02:54.508Z,1.3
2017-02-12T06:04:05.928Z,1.32
2017-02-12T06:05:17.334Z,1.3
2017-02-12T06:06:28.992Z,1.21
2017-02-12T06:07:40.397Z,1.24
2017-02-12T06:08:51.800Z,1.26
2017-02-12T06:10:03.226Z,1.18
2017-02-12T06:11:14.632Z,1.26
2017-02-12T06:12:26.043Z,1.18
2017-02-12T06:13:37.453Z,1.21
2017-02-12T06:14:49.249Z,1.18
2017-02-12T06:16:00.653Z,1.2
2017-02-12T06:17:12.050Z,1.24
2017-02-12T06:18:23.935Z,1.22
2017-02-12T06:19:35.342Z,1.22
2017-02-12T06:20:46.960Z,1.24
2017-02-12T06:21:58.348Z,1.3
2017-02-12T06:23:09.756Z,1.33
2017-02-12T06:24:21.161Z,1.21
2017-02-12T06:25:32.567Z,1.21
2017-02-12T06:26:44.167Z,1.22
2017-02-12T06:27:55.622Z,1.29
2017-02-12T06:29:07.226Z,1.22
2017-02-12T06:30:18.632Z,1.24
2017-02-12T06:31:30.038Z,1.21
2017-02-12T06:32:41.440Z,1.32
2017-02-12T06:33:52.844Z,1.17
2017-02-12T06:35:04.250Z,1.17
2017-02-12T06:36:15.657Z,1.18
2017-02-12T06:37:27.060Z,1.21
2017-02-12T06:38:38.509Z,1.21
2017-02-12T06:39:49.904Z,1.21
2017-02-12T06:41:01.303Z,1.2
2017-02-12T06:42:12.697Z,1.21
2017-02-12T06:43:24.095Z,1.2
2017-02-12T06:44:35.502Z,1.29
2017-02-12T06:45:46.912Z,1.2
2017-02-12T06:46:58.318Z,1.21
2017-02-12T06:48:09.726Z,1.2
2017-02-12T06:49:21.173Z,1.21
2017-02-12T06:50:32.578Z,1.24
2017-02-12T06:51:43.984Z,1.24
2017-02-12T06:52:55.381Z,1.22
2017-02-12T06:54:06.788Z,1.12
2017-02-12T06:55:18.186Z,1.24
2017-02-12T06:56:29.584Z,1.15
2017-02-12T06:57:41.183Z,1.1
2017-02-12T06:58:52.582Z,1.14
2017-02-12T07:00:03.995Z,1.1
2017-02-12T07:01:15.404Z,1.2
2017-02-12T07:02:26.820Z,1.21
2017-02-12T07:03:38.424Z,1.17
2017-02-12T07:04:49.827Z,1.17
2017-02-12T07:06:01.486Z,1.2
2017-02-12T07:07:12.886Z,1.2
2017-02-12T07:08:24.481Z,1.24
2017-02-12T07:09:35.921Z,1.08
2017-02-12T07:10:47.321Z,1.1
2017-02-12T07:11:58.731Z,1.18
2017-02-12T07:13:10.334Z,1.1
2017-02-12T07:14:21.734Z,1.28
2017-02-12T07:15:33.133Z,1.11
2017-02-12T07:16:44.781Z,1.14
2017-02-12T07:17:56.181Z,1.22
2017-02-12T07:19:07.801Z,1.17
2017-02-12T07:20:19.406Z,1.2
2017-02-12T07:21:30.811Z,1.21
2017-02-12T07:22:42.216Z,1.2
2017-02-12T07:23:53.622Z,1.14
2017-02-12T07:25:05.424Z,1.12
2017-02-12T07:26:16.828Z,1.17
2017-02-12T07:27:28.271Z,1.17
2017-02-12T07:28:39.673Z,1.2
2017-02-12T07:29:51.074Z,1.18
2017-02-12T07:31:02.476Z,1.17
2017-02-12T07:32:14.286Z,1.07
2017-02-12T07:33:25.720Z,1.24
2017-02-12T07:34:37.127Z,1.15
2017-02-12T07:35:48.744Z,1.21
2017-02-12T07:37:00.146Z,1.26
2017-02-12T07:38:11.565Z,1.17
2017-02-12T07:39:22.964Z,1.21
2017-02-12T07:40:34.369Z,1.26
2017-02-12T07:41:45.980Z,1.21
2017-02-12T07:42:57.422Z,1.21
2017-02-12T07:44:08.823Z,1.21
2017-02-12T07:45:20.233Z,1.3
2017-02-12T07:46:31.850Z,1.28
2017-02-12T07:47:43.459Z,1.33
2017-02-12T07:48:54.911Z,1.29
2017-02-12T07:50:06.570Z,1.32
2017-02-12T07:51:18.385Z,1.32
2017-02-12T07:52:29.787Z,1.32
2017-02-12T07:53:41.592Z,1.32
2017-02-12T07:54:52.995Z,1.29
2017-02-12T07:56:04.404Z,1.32
2017-02-12T07:57:16.034Z,1.29
2017-02-12T07:58:27.450Z,1.33
2017-02-12T07:59:39.116Z,1.33
2017-02-12T08:00:50.724Z,1.3
2017-02-12T08:02:02.119Z,1.32
2017-02-12T08:03:13.521Z,1.36
2017-02-12T08:04:25.129Z,1.32
2017-02-12T08:05:36.739Z,1.35
2017-02-12T08:06:48.145Z,1.4
2017-02-12T08:07:59.543Z,1.39
2017-02-12T08:09:10.957Z,1.35
2017-02-12T08:10:22.408Z,1.38
2017-02-12T08:11:33.805Z,1.35
2017-02-12T08:12:45.618Z,1.5
2017-02-12T08:13:57.424Z,1.54
2017-02-12T08:15:08.855Z,1.54
2017-02-12T08:16:20.459Z,1.68
2017-02-12T08:17:31.856Z,1.65
2017-02-12T08:18:43.260Z,1.64
2017-02-12T08:19:54.669Z,1.68
2017-02-12T08:21:06.111Z,1.6
2017-02-12T08:22:17.511Z,1.6
2017-02-12T08:23:28.920Z,1.68
2017-02-12T08:24:40.317Z,1.6
2017-02-12T08:25:51.712Z,1.56
2017-02-12T08:27:03.157Z,1.66
2017-02-12T08:28:14.561Z,1.54
2017-02-12T08:29:26.170Z,1.56
2017-02-12T08:30:37.578Z,1.64
2017-02-12T08:31:49.201Z,1.61
2017-02-12T08:33:00.656Z,1.6
2017-02-12T08:34:12.261Z,1.57
2017-02-12T08:35:23.680Z,1.72
2017-02-12T08:36:35.084Z,1.71
2017-02-12T08:37:46.688Z,1.68
2017-02-12T08:38:58.098Z,1.66
2017-02-12T08:40:09.501Z,1.58
2017-02-12T08:41:20.908Z,1.6
2017-02-12T08:42:32.366Z,1.53
2017-02-12T08:43:43.778Z,1.6
2017-02-12T08:44:55.386Z,1.58
2017-02-12T08:46:06.791Z,1.64
2017-02-12T08:47:18.403Z,1.76
2017-02-12T08:48:30.008Z,1.65
2017-02-12T08:49:41.415Z,1.78
2017-02-12T08:50:52.819Z,1.94
2017-02-12T08:52:04.426Z,1.86
2017-02-12T08:53:15.880Z,1.84
2017-02-12T08:54:27.286Z,1.78
2017-02-12T08:55:38.885Z,1.94
2017-02-12T08:56:50.289Z,1.74
2017-02-12T08:58:01.682Z,1.79
2017-02-12T08:59:13.089Z,1.86
2017-02-12T09:00:24.495Z,1.83
2017-02-12T09:01:35.901Z,1.76
2017-02-12T09:02:47.705Z,1.75
2017-02-12T09:03:59.159Z,1.76
2017-02-12T09:05:10.764Z,1.68
2017-02-12T09:06:22.367Z,1.72
2017-02-12T09:07:33.775Z,1.79
2017-02-12T09:08:45.380Z,1.82
2017-02-12T09:09:56.794Z,1.89
2017-02-12T09:11:08.454Z,1.75
2017-02-12T09:12:19.862Z,1.83
2017-02-12T09:13:31.464Z,1.78
2017-02-12T09:14:43.260Z,1.69
2017-02-12T09:15:54.715Z,1.79
2017-02-12T09:17:06.127Z,1.83
2017-02-12T09:18:17.531Z,1.87
2017-02-12T09:19:28.939Z,2.06
2017-02-12T09:20:40.349Z,1.92
2017-02-12T09:21:51.753Z,1.92
2017-02-12T09:23:03.199Z,1.92
2017-02-12T09:24:14.595Z,1.94
2017-02-12T09:25:26.053Z,1.92
2017-02-12T09:26:37.463Z,1.9
2017-02-12T09:27:48.870Z,1.97
2017-02-12T09:29:00.274Z,1.87
2017-02-12T09:30:11.677Z,1.97
2017-02-12T09:31:23.083Z,2.01
2017-02-12T09:32:34.687Z,1.97
2017-02-12T09:33:46.099Z,2.06
2017-02-12T09:34:57.505Z,2.13
2017-02-12T09:36:09.160Z,2.08
2017-02-12T09:37:20.597Z,2.2
2017-02-12T09:38:32.015Z,2.22
2017-02-12T09:39:43.621Z,2.02
2017-02-12T09:40:55.034Z,2.13
2017-02-12T09:42:06.433Z,2.08
2017-02-12T09:43:17.837Z,2.08
2017-02-12T09:44:29.444Z,2.09
2017-02-12T09:45:40.847Z,2.12
2017-02-12T09:46:52.302Z,2.11
2017-02-12T09:48:03.698Z,2.09
2017-02-12T09:49:15.300Z,2.11
2017-02-12T09:50:26.711Z,2.22
2017-02-12T09:51:38.120Z,2.22
2017-02-12T09:52:49.735Z,2.3
2017-02-12T09:54:01.139Z,2.33
2017-02-12T09:55:12.750Z,2.26
2017-02-12T09:56:24.359Z,2.41
2017-02-12T09:57:35.763Z,2.44
2017-02-12T09:58:47.220Z,2.6
2017-02-12T09:59:58.620Z,2.65
2017-02-12T10:01:10.028Z,2.66
2017-02-12T10:02:21.434Z,2.69
2017-02-12T10:03:32.837Z,2.78
2017-02-12T10:04:44.241Z,2.76
2017-02-12T10:05:55.649Z,2.66
2017-02-12T10:07:07.056Z,2.63
2017-02-12T10:08:18.719Z,2.58
2017-02-12T10:09:30.326Z,2.76
2017-02-12T10:10:41.730Z,2.8
2017-02-12T10:11:53.150Z,2.9
2017-02-12T10:13:04.558Z,2.81
2017-02-12T10:14:15.965Z,2.85
2017-02-12T10:15:27.364Z,2.81
2017-02-12T10:16:38.791Z,2.81
2017-02-12T10:17:50.206Z,2.88
2017-02-12T10:19:01.661Z,2.88
2017-02-12T10:20:13.272Z,2.84
2017-02-12T10:21:24.680Z,2.95
2017-02-12T10:22:36.093Z,3.01
2017-02-12T10:23:47.707Z,3.19
2017-02-12T10:24:59.165Z,3.16
2017-02-12T10:26:10.574Z,3.2
2017-02-12T10:27:21.983Z,3.29
2017-02-12T10:28:33.396Z,3.26
2017-02-12T10:29:44.858Z,3.32
2017-02-12T10:30:56.263Z,3.3
2017-02-12T10:32:07.708Z,3.32
2017-02-12T10:33:19.120Z,3.32
2017-02-12T10:34:30.724Z,3.53
2017-02-12T10:35:42.132Z,3.6
2017-02-12T10:36:53.544Z,3.72
2017-02-12T10:38:04.949Z,4
2017-02-12T10:39:16.364Z,4.46
2017-02-12T10:40:27.777Z,4.65
2017-02-12T10:41:39.233Z,4.66
2017-02-12T10:42:50.646Z,4.75
2017-02-12T10:44:02.055Z,4.92
2017-02-12T10:45:13.469Z,4.84
2017-02-12T10:46:24.877Z,4.72
2017-02-12T10:47:36.486Z,4.42
2017-02-12T10:48:47.896Z,4.21
2017-02-12T10:49:59.506Z,4.46
2017-02-12T10:51:11.169Z,4.65
2017-02-12T10:52:22.581Z,4.92
2017-02-12T10:53:33.996Z,4.91
2017-02-12T10:54:45.418Z,4.87
2017-02-12T10:55:56.827Z,4.87
2017-02-12T10:57:08.244Z,4.72
2017-02-12T10:58:19.644Z,4.6
2017-02-12T10:59:31.258Z,4.66
2017-02-12T11:00:42.863Z,4.84
2017-02-12T11:01:54.533Z,5.03
2017-02-12T11:03:06.142Z,5.31
2017-02-12T11:04:17.553Z,5.39
2017-02-12T11:05:28.966Z,5.55
2017-02-12T11:06:40.383Z,5.52
2017-02-12T11:07:51.998Z,5.44
2017-02-12T11:09:03.416Z,5.42
2017-02-12T11:10:14.849Z,5.45
2017-02-12T11:11:26.262Z,5.48
2017-02-12T11:12:37.734Z,5.57
2017-02-12T11:13:49.346Z,5.75
2017-02-12T11:15:00.756Z,5.72
2017-02-12T11:16:12.168Z,5.66
2017-02-12T11:17:23.575Z,5.62
2017-02-12T11:18:34.985Z,5.52
2017-02-12T11:19:46.402Z,5.77
2017-02-12T11:20:57.823Z,5.73
2017-02-12T11:22:09.231Z,5.64
2017-02-12T11:23:20.640Z,5.66
2017-02-12T11:24:32.095Z,5.64
2017-02-12T11:25:43.717Z,5.72
2017-02-12T11:26:55.134Z,5.67
2017-02-12T11:28:06.541Z,5.57
2017-02-12T11:29:18.173Z,5.66
2017-02-12T11:30:29.592Z,5.54
2017-02-12T11:31:41.003Z,5.64
2017-02-12T11:32:52.413Z,5.73
2017-02-12T11:34:03.881Z,5.82
2017-02-12T11:35:15.295Z,5.82
2017-02-12T11:36:26.906Z,5.92
2017-02-12T11:37:38.313Z,6.07
2017-02-12T11:38:49.722Z,6.2
2017-02-12T11:40:01.331Z,6.31
2017-02-12T11:41:12.744Z,6.25
2017-02-12T11:42:24.160Z,6.15
2017-02-12T11:43:35.574Z,6.05
2017-02-12T11:44:47.033Z,6.03
2017-02-12T11:45:58.648Z,6.17
2017-02-12T11:47:10.265Z,6.18
2017-02-12T11:48:21.714Z,6.1
2017-02-12T11:49:33.134Z,6.1
2017-02-12T11:50:44.593Z,6.1
2017-02-12T11:51:56.211Z,5.84
2017-02-12T11:53:07.627Z,5.8
2017-02-12T11:54:19.441Z,5.78
2017-02-12T11:55:30.933Z,5.77
2017-02-12T11:56:42.358Z,5.85
2017-02-12T11:57:53.776Z,5.87
2017-02-12T11:59:05.187Z,5.91
2017-02-12T12:00:16.797Z,5.91
2017-02-12T12:01:28.217Z,5.95
2017-02-12T12:02:39.831Z,5.95
2017-02-12T12:03:51.244Z,5.88
2017-02-12T12:05:02.658Z,5.82
2017-02-12T12:06:14.067Z,5.81
2017-02-12T12:07:25.536Z,5.78
2017-02-12T12:08:36.958Z,5.69
2017-02-12T12:09:48.361Z,5.48
2017-02-12T12:10:59.978Z,5.48
2017-02-12T12:12:11.382Z,5.46
2017-02-12T12:13:22.786Z,5.51
2017-02-12T12:14:34.201Z,5.49
2017-02-12T12:15:45.810Z,5.51
2017-02-12T12:16:57.266Z,5.73
2017-02-12T12:18:08.696Z,5.85
2017-02-12T12:19:20.301Z,5.91
2017-02-12T12:20:31.713Z,5.88
2017-02-12T12:21:43.154Z,5.95
2017-02-12T12:22:54.612Z,5.96
2017-02-12T12:24:06.228Z,5.82
2017-02-12T12:25:17.640Z,6
2017-02-12T12:26:29.086Z,6.09
2017-02-12T12:27:40.749Z,6.26
2017-02-12T12:28:52.157Z,6.36
2017-02-12T12:30:03.606Z,6.42
2017-02-12T12:31:15.012Z,6.42
2017-02-12T12:32:26.621Z,6.43
2017-02-12T12:33:38.037Z,6.43
2017-02-12T12:34:49.434Z,6.28
2017-02-12T12:36:01.048Z,6.2
2017-02-12T12:37:12.459Z,5.99
2017-02-12T12:38:24.128Z,5.73
2017-02-12T12:39:35.545Z,5.82
2017-02-12T12:40:46.992Z,5.84
2017-02-12T12:41:58.607Z,6.02
2017-02-12T12:43:10.025Z,6.17
2017-02-12T12:44:21.443Z,5.95
2017-02-12T12:45:32.863Z,5.73
2017-02-12T12:46:44.270Z,5.72
2017-02-12T12:47:55.685Z,5.69
2017-02-12T12:49:07.088Z,5.67
2017-02-12T12:50:18.551Z,5.77
2017-02-12T12:51:29.967Z,5.87
2017-02-12T12:52:41.385Z,6
2017-02-12T12:53:52.789Z,6.09
2017-02-12T12:55:04.199Z,6.09
2017-02-12T12:56:15.606Z,6.1
2017-02-12T12:57:27.004Z,6.21
2017-02-12T12:58:38.813Z,6.24
2017-02-12T12:59:50.271Z,6.18
2017-02-12T13:01:01.686Z,6.1
2017-02-12T13:02:13.093Z,6.09
2017-02-12T13:03:24.697Z,6.06
2017-02-12T13:04:36.106Z,6.1
2017-02-12T13:05:47.527Z,6.13
2017-02-12T13:06:58.950Z,6.07
2017-02-12T13:08:10.359Z,5.88
2017-02-12T13:09:22.163Z,5.64
2017-02-12T13:10:33.621Z,5.64
2017-02-12T13:11:45.038Z,5.73
2017-02-12T13:12:56.458Z,5.87
2017-02-12T13:14:07.870Z,6
2017-02-12T13:15:19.278Z,6.15
2017-02-12T13:16:30.686Z,6.26
2017-02-12T13:17:42.106Z,6.44
2017-02-12T13:18:53.524Z,6.55
2017-02-12T13:20:04.931Z,6.61
2017-02-12T13:21:16.388Z,6.65
2017-02-12T13:22:27.798Z,6.51
2017-02-12T13:23:39.207Z,6.49
2017-02-12T13:24:50.816Z,6.51
2017-02-12T13:26:02.222Z,6.4
2017-02-12T13:27:13.834Z,6.37
2017-02-12T13:28:25.252Z,6.39
2017-02-12T13:29:36.667Z,6.33
2017-02-12T13:30:48.075Z,6.29
2017-02-12T13:31:59.498Z,6.2
2017-02-12T13:33:10.970Z,6.25
2017-02-12T13:34:22.377Z,6.26
2017-02-12T13:35:33.785Z,6.36
2017-02-12T13:36:45.389Z,6.37
2017-02-12T13:37:56.793Z,6.2
2017-02-12T13:39:08.196Z,6.26
2017-02-12T13:40:19.613Z,6.28
2017-02-12T13:41:31.021Z,6.2
2017-02-12T13:42:42.481Z,6.18
2017-02-12T13:43:53.897Z,6.14
2017-02-12T13:45:05.306Z,6
2017-02-12T13:46:16.712Z,5.82
2017-02-12T13:47:28.116Z,5.64
2017-02-12T13:48:39.518Z,5.46
2017-02-12T13:49:50.919Z,5.49
2017-02-12T13:51:02.333Z,5.55
2017-02-12T13:52:13.954Z,5.48
2017-02-12T13:53:25.410Z,5.6
2017-02-12T13:54:36.822Z,5.6
2017-02-12T13:55:48.229Z,5.54
2017-02-12T13:56:59.639Z,5.55
2017-02-12T13:58:11.051Z,5.77
2017-02-12T13:59:22.456Z,5.77
2017-02-12T14:00:33.857Z,5.69
2017-02-12T14:01:45.671Z,5.67
2017-02-12T14:02:57.282Z,5.66
2017-02-12T14:04:08.742Z,5.57
2017-02-12T14:05:20.161Z,5.72
2017-02-12T14:06:31.565Z,5.72
2017-02-12T14:07:43.177Z,5.59
2017-02-12T14:08:54.586Z,5.45
2017-02-12T14:10:06.050Z,5.34
2017-02-12T14:11:17.466Z,5.2
2017-02-12T14:12:29.075Z,5.13
2017-02-12T14:13:40.681Z,5.12
2017-02-12T14:14:52.084Z,5.03
2017-02-12T14:16:03.898Z,5
2017-02-12T14:17:15.304Z,4.9
2017-02-12T14:18:26.714Z,4.97
2017-02-12T14:19:38.324Z,4.9
2017-02-12T14:20:49.777Z,4.91
2017-02-12T14:22:01.182Z,4.83
2017-02-12T14:23:12.595Z,4.79
2017-02-12T14:24:24.006Z,4.84
2017-02-12T14:25:35.408Z,4.84
2017-02-12T14:26:47.013Z,4.83
2017-02-12T14:27:58.407Z,4.79
2017-02-12T14:29:09.839Z,4.78
2017-02-12T14:30:21.247Z,4.76
2017-02-12T14:31:32.702Z,4.83
2017-02-12T14:32:44.105Z,4.69
2017-02-12T14:33:55.523Z,4.6
2017-02-12T14:35:06.939Z,4.72
2017-02-12T14:36:18.347Z,4.75
2017-02-12T14:37:29.958Z,4.64
2017-02-12T14:38:41.365Z,4.64
2017-02-12T14:39:52.778Z,4.68
2017-02-12T14:41:04.185Z,4.57
2017-02-12T14:42:15.643Z,4.57
2017-02-12T14:43:27.054Z,4.56
2017-02-12T14:44:38.465Z,4.6
2017-02-12T14:45:50.088Z,4.53
2017-02-12T14:47:01.502Z,4.54
2017-02-12T14:48:13.111Z,4.47
2017-02-12T14:49:24.515Z,4.38
2017-02-12T14:50:36.114Z,4.36
2017-02-12T14:51:47.515Z,4.36
2017-02-12T14:52:58.967Z,4.38
2017-02-12T14:54:10.572Z,4.3
2017-02-12T14:55:21.976Z,4.17
2017-02-12T14:56:33.391Z,4.12
2017-02-12T14:57:44.802Z,4.21
2017-02-12T14:58:56.200Z,4.2
2017-02-12T15:00:07.802Z,4.17
2017-02-12T15:01:19.416Z,4.14
2017-02-12T15:02:30.826Z,4.14
2017-02-12T15:03:42.282Z,4.2
2017-02-12T15:04:53.915Z,4.17
2017-02-12T15:06:05.327Z,4.22
2017-02-12T15:07:16.736Z,4.17
2017-02-12T15:08:28.144Z,4.2
2017-02-12T15:09:39.746Z,4.12
2017-02-12T15:10:51.158Z,4.15
2017-02-12T15:12:02.559Z,4.15
2017-02-12T15:13:13.971Z,4.12
2017-02-12T15:14:25.425Z,4.11
2017-02-12T15:15:36.840Z,4.03
2017-02-12T15:16:48.235Z,4.12
2017-02-12T15:17:59.841Z,4.11
2017-02-12T15:19:11.250Z,4.12
2017-02-12T15:20:22.659Z,4.07
2017-02-12T15:21:34.064Z,4.1
2017-02-12T15:22:45.474Z,4.03
2017-02-12T15:23:56.883Z,4.03
2017-02-12T15:25:08.333Z,4.07
2017-02-12T15:26:19.740Z,4
2017-02-12T15:27:31.149Z,3.96
2017-02-12T15:28:42.573Z,3.94
2017-02-12T15:29:53.980Z,3.9
2017-02-12T15:31:05.394Z,3.75
2017-02-12T15:32:16.997Z,3.71
2017-02-12T15:33:28.615Z,3.71
2017-02-12T15:34:40.019Z,3.76
2017-02-12T15:35:51.474Z,3.72
2017-02-12T15:37:02.881Z,3.76
2017-02-12T15:38:14.288Z,3.67
2017-02-12T15:39:25.697Z,3.67
2017-02-12T15:40:37.097Z,3.74
2017-02-12T15:41:48.711Z,3.63
2017-02-12T15:43:00.125Z,3.61
2017-02-12T15:44:11.538Z,3.6
2017-02-12T15:45:22.944Z,3.61
2017-02-12T15:46:34.347Z,3.56
2017-02-12T15:47:45.803Z,3.53
2017-02-12T15:48:57.208Z,3.46
2017-02-12T15:50:08.812Z,3.49
2017-02-12T15:51:20.227Z,3.45
2017-02-12T15:52:31.638Z,3.56
2017-02-12T15:53:43.044Z,3.49
2017-02-12T15:54:54.449Z,3.51
2017-02-12T15:56:06.085Z,3.45